Time;durP1;ratioP1;P1;durP2;ratioP2;P2;SDS_P1;SDS_P2;PMS_P1;PMS_P2;Temp;Humidity;BMP_temperature;BMP_pressure;BME280_temperature;BME280_humidity;BME280_pressure;Samples;Min_cycle;Max_cycle;Signal;HPM_P1;HPM_P2
2021/04/14 00:00:29;;;;;;;1.23;0.70;;;0.10;99.90;;;;;;4989180;28;20286;-79
2021/04/14 00:02:56;;;;;;;1.03;0.73;;;0.00;99.90;;;;;;4988088;28;20190;-79
2021/04/14 00:05:27;;;;;;;1.77;1.03;;;0.00;99.90;;;;;;4988308;28;20682;-79
2021/04/14 00:07:53;;;;;;;0.73;0.47;;;-0.10;99.90;;;;;;4987595;28;20197;-79
2021/04/14 00:10:25;;;;;;;2.63;0.90;;;0.00;99.90;;;;;;4988942;28;20782;-78
2021/04/14 00:12:51;;;;;;;1.33;0.80;;;0.00;99.90;;;;;;4989050;28;20187;-78
2021/04/14 00:15:22;;;;;;;1.63;0.60;;;-0.10;99.90;;;;;;4988376;28;20208;-78
2021/04/14 00:17:48;;;;;;;0.40;0.40;;;0.00;99.90;;;;;;4987619;28;20180;-79
2021/04/14 00:20:14;;;;;;;0.60;0.50;;;0.00;99.90;;;;;;4986923;28;20223;-78
2021/04/14 00:22:40;;;;;;;0.60;0.60;;;-0.10;99.90;;;;;;4989175;28;20215;-78
2021/04/14 00:25:06;;;;;;;0.63;0.57;;;0.00;99.90;;;;;;4988536;28;20215;-78
2021/04/14 00:27:36;;;;;;;0.43;0.30;;;0.00;99.90;;;;;;4988136;28;20803;-78
2021/04/14 00:30:05;;;;;;;0.60;0.60;;;-0.20;99.90;;;;;;4986046;28;20637;-78
2021/04/14 00:32:30;;;;;;;0.60;0.50;;;-0.10;99.90;;;;;;4987427;28;20296;-79
2021/04/14 00:34:56;;;;;;;0.40;0.40;;;-0.20;99.90;;;;;;4987728;28;20745;-79
2021/04/14 00:37:21;;;;;;;1.63;0.60;;;-0.20;99.90;;;;;;4988836;28;20271;-79
2021/04/14 00:39:47;;;;;;;0.80;0.67;;;-0.20;99.90;;;;;;4986372;28;20607;-80
2021/04/14 00:42:13;;;;;;;0.40;0.40;;;-0.20;99.90;;;;;;5003573;28;20215;-78
2021/04/14 00:44:39;;;;;;;0.40;0.40;;;-0.10;99.90;;;;;;4986629;28;20267;-79
2021/04/14 00:47:04;;;;;;;1.77;1.20;;;0.00;99.90;;;;;;4987751;28;21333;-79
2021/04/14 00:49:30;;;;;;;0.57;0.57;;;0.10;99.90;;;;;;4987941;28;20208;-79
2021/04/14 00:51:56;;;;;;;1.20;0.70;;;0.20;99.90;;;;;;4986749;28;20199;-79
2021/04/14 00:54:21;;;;;;;1.23;0.83;;;0.30;99.90;;;;;;5002661;28;20249;-79
2021/04/14 00:56:47;;;;;;;0.77;0.77;;;0.30;99.90;;;;;;4988128;28;20239;-78
2021/04/14 00:59:12;;;;;;;2.33;0.97;;;0.30;99.90;;;;;;5002661;28;20710;-79
2021/04/14 01:01:38;;;;;;;0.80;0.80;;;0.30;99.90;;;;;;4987913;28;20187;-79
2021/04/14 01:04:04;;;;;;;0.73;0.60;;;0.30;99.90;;;;;;4987537;28;20196;-79
2021/04/14 01:06:30;;;;;;;0.57;0.47;;;0.40;99.90;;;;;;5002687;28;20644;-78
2021/04/14 01:08:57;;;;;;;2.57;1.00;;;0.50;99.90;;;;;;4986533;28;20257;-78
2021/04/14 01:11:24;;;;;;;1.43;1.13;;;0.60;99.90;;;;;;4987314;28;20192;-78
2021/04/14 01:13:50;;;;;;;0.83;0.60;;;0.60;99.90;;;;;;4985997;28;20179;-79
2021/04/14 01:16:16;;;;;;;1.50;0.80;;;0.60;99.90;;;;;;4987440;28;20239;-78
2021/04/14 01:18:41;;;;;;;1.10;0.53;;;0.50;99.90;;;;;;4987203;28;20227;-79
2021/04/14 01:21:23;;;;;;;1.70;0.70;;;0.40;99.90;;;;;;4986277;28;20659;-78
2021/04/14 01:23:49;;;;;;;0.57;0.57;;;0.30;99.90;;;;;;4985486;28;20184;-79
2021/04/14 01:26:15;;;;;;;0.93;0.93;;;0.20;99.90;;;;;;4987021;28;20195;-78
2021/04/14 01:28:44;;;;;;;1.10;0.57;;;0.20;99.90;;;;;;4985673;28;20303;-79
2021/04/14 01:31:14;;;;;;;2.90;1.00;;;0.20;99.90;;;;;;4985301;28;20191;-79
2021/04/14 01:33:40;;;;;;;0.60;0.60;;;0.00;99.90;;;;;;4986807;28;20176;-78
2021/04/14 01:36:09;;;;;;;1.80;1.07;;;0.00;99.90;;;;;;4987277;28;20207;-80
2021/04/14 01:38:35;;;;;;;0.73;0.73;;;0.00;99.90;;;;;;4987409;28;20232;-79
2021/04/14 01:41:03;;;;;;;0.50;0.50;;;0.00;99.90;;;;;;4986731;28;20214;-78
2021/04/14 01:43:31;;;;;;;0.73;0.60;;;-0.10;99.90;;;;;;4986042;28;20183;-79
2021/04/14 01:45:57;;;;;;;1.77;1.10;;;-0.10;99.90;;;;;;4986907;28;20188;-79
2021/04/14 01:48:22;;;;;;;1.37;0.87;;;-0.10;99.90;;;;;;4986495;28;20208;-81
2021/04/14 01:50:49;;;;;;;0.83;0.70;;;-0.10;99.90;;;;;;5001819;28;20199;-81
2021/04/14 01:53:17;;;;;;;1.20;1.10;;;-0.10;99.90;;;;;;4984963;28;20665;-79
2021/04/14 01:55:43;;;;;;;1.30;1.20;;;-0.10;99.90;;;;;;4984681;28;20431;-81
2021/04/14 01:58:10;;;;;;;3.07;1.17;;;-0.20;99.90;;;;;;4986612;28;20547;-79
2021/04/14 02:00:44;;;;;;;2.50;0.57;;;-0.20;99.90;;;;;;4985048;28;20183;-81
2021/04/14 02:03:11;;;;;;;1.10;0.90;;;-0.20;99.90;;;;;;4985401;28;20279;-80
2021/04/14 02:05:36;;;;;;;1.00;0.87;;;-0.30;99.90;;;;;;4986202;28;20184;-80
2021/04/14 02:08:03;;;;;;;0.77;0.70;;;-0.20;99.90;;;;;;4986400;28;20559;-78
2021/04/14 02:10:31;;;;;;;1.20;0.90;;;-0.20;99.90;;;;;;4984770;28;20184;-79
2021/04/14 02:12:59;;;;;;;1.10;0.90;;;-0.20;99.90;;;;;;4985359;28;20196;-79
2021/04/14 02:15:28;;;;;;;0.87;0.87;;;-0.30;99.90;;;;;;4985312;28;20208;-79
2021/04/14 02:17:54;;;;;;;1.57;0.70;;;-0.30;99.90;;;;;;4986062;28;20176;-80
2021/04/14 02:20:20;;;;;;;2.10;1.47;;;-0.30;99.90;;;;;;4986228;28;20562;-79
2021/04/14 02:22:47;;;;;;;0.60;0.60;;;-0.30;99.90;;;;;;5001037;28;20172;-78
2021/04/14 02:25:14;;;;;;;1.33;1.23;;;-0.40;99.90;;;;;;4984751;28;20702;-79
2021/04/14 02:27:40;;;;;;;0.97;0.70;;;-0.40;99.90;;;;;;4986199;28;20210;-79
2021/04/14 02:30:07;;;;;;;0.67;0.67;;;-0.50;99.90;;;;;;4984734;28;20239;-80
2021/04/14 02:32:34;;;;;;;0.93;0.80;;;-0.40;99.90;;;;;;4986396;28;20250;-80
2021/04/14 02:34:59;;;;;;;1.93;1.23;;;-0.40;99.90;;;;;;4983831;28;20188;-79
2021/04/14 02:37:25;;;;;;;1.73;1.10;;;-0.50;99.90;;;;;;4984722;28;20180;-78
2021/04/14 02:39:51;;;;;;;1.13;0.80;;;-0.30;99.90;;;;;;4999653;28;20612;-80
2021/04/14 02:42:16;;;;;;;2.80;1.10;;;-0.30;99.90;;;;;;4983532;28;20204;-80
2021/04/14 02:44:42;;;;;;;0.97;0.90;;;-0.40;99.90;;;;;;4982667;28;20550;-79
2021/04/14 02:47:07;;;;;;;0.57;0.57;;;-0.40;99.90;;;;;;4984635;28;20185;-79
2021/04/14 02:49:33;;;;;;;1.77;1.37;;;-0.50;99.90;;;;;;4985088;28;20317;-80
2021/04/14 02:51:59;;;;;;;1.27;0.87;;;-0.40;99.90;;;;;;5001832;28;20804;-80
2021/04/14 02:54:25;;;;;;;0.70;0.50;;;-0.40;99.90;;;;;;4988741;28;20246;-79
2021/04/14 02:56:51;;;;;;;0.60;0.60;;;-0.50;99.90;;;;;;4989317;28;20279;-79
2021/04/14 02:59:17;;;;;;;2.77;1.13;;;-0.40;99.90;;;;;;4988196;28;20208;-79
2021/04/14 03:01:42;;;;;;;1.03;0.97;;;-0.40;99.90;;;;;;4988808;28;20272;-79
2021/04/14 03:04:08;;;;;;;3.73;1.87;;;-0.40;99.90;;;;;;4987893;28;20216;-79
2021/04/14 03:06:34;;;;;;;2.73;1.87;;;-0.40;99.90;;;;;;4988506;28;20191;-79
2021/04/14 03:09:00;;;;;;;1.37;1.27;;;-0.40;99.90;;;;;;4988626;28;20212;-79
2021/04/14 03:11:26;;;;;;;1.40;1.00;;;-0.20;99.90;;;;;;4988754;28;20192;-79
2021/04/14 03:13:52;;;;;;;1.77;1.20;;;-0.20;99.90;;;;;;4989972;28;20287;-79
2021/04/14 03:16:17;;;;;;;0.90;0.70;;;-0.30;99.90;;;;;;4988154;28;20243;-79
2021/04/14 03:18:43;;;;;;;1.60;1.20;;;-0.30;99.90;;;;;;4989262;28;20200;-79
2021/04/14 03:21:08;;;;;;;1.53;1.40;;;-0.30;99.90;;;;;;4988031;28;20181;-79
2021/04/14 03:23:34;;;;;;;7.73;1.20;;;-0.40;99.90;;;;;;4989530;28;20180;-79
2021/04/14 03:26:00;;;;;;;1.50;1.40;;;-0.50;99.90;;;;;;4989097;28;20193;-79
2021/04/14 03:28:26;;;;;;;1.40;1.03;;;-0.50;99.90;;;;;;4989563;28;20584;-79
2021/04/14 03:30:51;;;;;;;1.83;1.67;;;-0.60;99.90;;;;;;4987949;28;20180;-78
2021/04/14 03:33:17;;;;;;;1.20;1.10;;;-0.60;99.90;;;;;;4988499;28;20239;-79
2021/04/14 03:35:43;;;;;;;1.13;1.03;;;-0.70;99.90;;;;;;4987561;28;20200;-79
2021/04/14 03:38:09;;;;;;;1.27;1.03;;;-0.70;99.90;;;;;;4987886;28;20276;-79
2021/04/14 03:40:35;;;;;;;0.80;0.80;;;-0.80;99.90;;;;;;4987614;28;20194;-79
2021/04/14 03:43:00;;;;;;;2.43;1.43;;;-0.70;99.90;;;;;;4988894;28;20184;-79
2021/04/14 03:45:37;;;;;;;4.47;1.60;;;-0.80;99.90;;;;;;4989228;28;20199;-79
2021/04/14 03:48:04;;;;;;;1.00;0.90;;;-0.90;99.90;;;;;;4989005;28;20204;-79
2021/04/14 03:50:30;;;;;;;1.10;1.10;;;-0.90;99.90;;;;;;5004034;28;20188;-78
2021/04/14 03:53:07;;;;;;;0.87;0.83;;;-1.00;99.90;;;;;;4987404;28;20193;-78
2021/04/14 03:55:32;;;;;;;1.23;1.13;;;-1.00;99.90;;;;;;4986924;28;20246;-79
2021/04/14 03:57:58;;;;;;;1.43;1.33;;;-0.90;99.90;;;;;;4987292;28;20180;-79
2021/04/14 04:00:25;;;;;;;0.80;0.80;;;-0.80;99.90;;;;;;4988333;28;20212;-78
2021/04/14 04:02:51;;;;;;;2.17;1.87;;;-0.90;99.90;;;;;;4988199;28;20219;-78
2021/04/14 04:05:16;;;;;;;1.60;1.30;;;-1.00;99.90;;;;;;4987884;28;20192;-78
2021/04/14 04:07:42;;;;;;;1.40;1.30;;;-0.80;99.90;;;;;;4987610;28;20195;-78
2021/04/14 04:10:08;;;;;;;1.40;1.30;;;-0.90;99.90;;;;;;4988573;28;20899;-78
2021/04/14 04:12:34;;;;;;;2.10;1.10;;;-1.00;99.90;;;;;;4989077;28;20192;-78
2021/04/14 04:15:00;;;;;;;1.23;1.00;;;-1.10;99.90;;;;;;4988862;28;20301;-79
2021/04/14 04:17:26;;;;;;;2.00;1.80;;;-1.00;99.90;;;;;;5003807;28;20188;-79
2021/04/14 04:19:52;;;;;;;1.50;1.40;;;-1.00;99.90;;;;;;4989430;28;20231;-78
2021/04/14 04:22:19;;;;;;;3.80;1.53;;;-1.00;99.90;;;;;;5003554;28;20215;-79
2021/04/14 04:24:49;;;;;;;5.67;1.30;;;-0.90;99.90;;;;;;4987194;28;20207;-78
2021/04/14 04:27:17;;;;;;;2.70;1.70;;;-0.90;99.90;;;;;;4988386;28;20184;-78
2021/04/14 04:29:42;;;;;;;1.10;1.10;;;-0.80;99.90;;;;;;4988389;28;20897;-79
2021/04/14 04:32:08;;;;;;;1.23;1.10;;;-0.70;99.90;;;;;;5002956;28;20230;-79
2021/04/14 04:34:34;;;;;;;2.07;1.73;;;-0.80;99.90;;;;;;4987160;28;20765;-78
2021/04/14 04:37:00;;;;;;;1.83;1.33;;;-0.90;99.90;;;;;;4986906;28;20212;-79
2021/04/14 04:39:26;;;;;;;1.50;1.00;;;-0.90;99.90;;;;;;4987914;28;21043;-79
2021/04/14 04:41:51;;;;;;;1.47;1.10;;;-0.90;99.90;;;;;;4986837;28;20239;-79
2021/04/14 04:44:17;;;;;;;2.43;1.27;;;-0.90;99.90;;;;;;4987097;28;20220;-79
2021/04/14 04:46:42;;;;;;;16.53;1.73;;;-0.90;99.90;;;;;;4987827;28;20232;-79
2021/04/14 04:49:08;;;;;;;1.07;0.97;;;-0.70;99.90;;;;;;4987953;28;20208;-80
2021/04/14 04:51:34;;;;;;;1.33;1.23;;;-0.60;99.90;;;;;;4988162;28;20195;-79
2021/04/14 04:53:59;;;;;;;2.10;1.83;;;-0.50;99.90;;;;;;4986820;28;20227;-80
2021/04/14 04:56:25;;;;;;;1.23;1.10;;;-0.30;99.90;;;;;;4987701;28;20212;-79
2021/04/14 04:58:51;;;;;;;1.30;1.10;;;-0.30;99.90;;;;;;4987691;28;20283;-79
2021/04/14 05:01:17;;;;;;;2.20;1.50;;;-0.20;99.90;;;;;;4986387;28;20279;-79
2021/04/14 05:03:43;;;;;;;1.50;1.40;;;-0.20;99.90;;;;;;4988191;28;20580;-78
2021/04/14 05:06:08;;;;;;;2.23;1.53;;;-0.10;99.90;;;;;;5002650;28;20196;-79
2021/04/14 05:08:35;;;;;;;1.17;1.07;;;-0.10;99.90;;;;;;4988105;28;20215;-79
2021/04/14 05:11:01;;;;;;;1.83;1.60;;;-0.10;99.90;;;;;;4986125;28;21084;-79
2021/04/14 05:13:27;;;;;;;1.23;1.13;;;0.10;99.90;;;;;;4987106;28;20207;-79
2021/04/14 05:15:52;;;;;;;2.27;1.40;;;0.40;99.90;;;;;;4987123;28;20223;-79
2021/04/14 05:18:18;;;;;;;1.73;1.20;;;0.90;99.90;;;;;;5003097;28;20184;-79
2021/04/14 05:20:44;;;;;;;1.93;1.47;;;1.10;99.90;;;;;;4985756;28;20184;-78
2021/04/14 05:23:11;;;;;;;1.97;1.77;;;1.20;99.90;;;;;;4986092;28;20242;-79
2021/04/14 05:25:40;;;;;;;1.63;1.53;;;1.60;99.90;;;;;;5001879;28;20213;-79
2021/04/14 05:28:09;;;;;;;1.50;1.30;;;2.10;99.90;;;;;;4987002;28;20678;-79
2021/04/14 05:30:35;;;;;;;1.50;1.40;;;2.20;99.90;;;;;;5002103;28;20224;-79
2021/04/14 05:33:01;;;;;;;2.10;1.37;;;2.10;99.90;;;;;;4985904;28;20196;-79
2021/04/14 05:35:27;;;;;;;2.43;1.57;;;2.00;99.90;;;;;;4986743;28;20250;-79
2021/04/14 05:37:53;;;;;;;1.97;1.17;;;1.80;99.90;;;;;;4984924;28;20190;-79
2021/04/14 05:40:19;;;;;;;4.90;1.63;;;2.00;99.90;;;;;;4986915;28;20204;-79
2021/04/14 05:42:47;;;;;;;1.93;1.73;;;2.40;99.90;;;;;;4986823;28;20181;-79
2021/04/14 05:45:22;;;;;;;1.03;1.00;;;2.90;99.90;;;;;;4986599;28;20196;-79
2021/04/14 05:47:48;;;;;;;1.83;1.43;;;3.00;99.90;;;;;;4986588;28;20187;-79
2021/04/14 05:50:17;;;;;;;2.20;1.73;;;3.00;99.90;;;;;;5001838;28;20200;-78
2021/04/14 05:52:42;;;;;;;1.40;1.30;;;3.60;99.90;;;;;;4987005;28;20188;-79
2021/04/14 05:55:09;;;;;;;2.77;1.63;;;4.00;99.90;;;;;;4986475;28;20199;-79
2021/04/14 05:57:35;;;;;;;1.43;1.30;;;4.10;99.90;;;;;;4986528;28;20298;-78
2021/04/14 06:00:00;;;;;;;3.17;1.63;;;3.90;99.90;;;;;;4985719;28;20304;-79
2021/04/14 06:02:26;;;;;;;1.73;1.47;;;3.70;99.90;;;;;;4986181;28;20263;-79
2021/04/14 06:04:52;;;;;;;1.97;1.23;;;3.60;99.90;;;;;;4987124;28;20262;-78
2021/04/14 06:07:18;;;;;;;2.17;1.13;;;3.50;99.90;;;;;;4986171;28;20782;-78
2021/04/14 06:09:44;;;;;;;3.43;1.30;;;3.40;99.90;;;;;;5000273;28;20251;-79
2021/04/14 06:12:11;;;;;;;1.53;1.20;;;3.50;99.90;;;;;;4986821;28;20188;-78
2021/04/14 06:14:36;;;;;;;1.80;0.93;;;4.10;99.90;;;;;;4984200;28;20184;-79
2021/04/14 06:17:02;;;;;;;2.70;1.20;;;4.90;99.90;;;;;;4986094;28;20215;-79
2021/04/14 06:19:28;;;;;;;1.87;1.53;;;5.60;99.90;;;;;;4985268;28;20200;-79
2021/04/14 06:21:54;;;;;;;1.80;1.43;;;6.40;99.90;;;;;;4985487;28;20180;-80
2021/04/14 06:24:19;;;;;;;3.20;2.57;;;6.80;99.90;;;;;;4985947;28;20181;-79
2021/04/14 06:26:53;;;;;;;3.97;2.60;;;7.20;99.90;;;;;;4986564;28;20216;-79
2021/04/14 06:29:18;;;;;;;1.93;1.43;;;7.30;99.90;;;;;;4990662;28;20211;-79
2021/04/14 06:31:44;;;;;;;1.40;1.23;;;7.60;99.90;;;;;;4990098;28;20184;-79
2021/04/14 06:34:18;;;;;;;1.20;1.10;;;7.50;99.90;;;;;;5004759;28;21302;-79
2021/04/14 06:36:46;;;;;;;1.70;1.60;;;7.30;99.90;;;;;;4989541;28;20195;-80
2021/04/14 06:39:14;;;;;;;3.97;1.47;;;7.10;99.90;;;;;;4989146;28;20203;-78
2021/04/14 06:44:58;;;;;;;2.93;1.40;;;6.60;99.90;;;;;;4989551;28;20548;-79
2021/04/14 06:47:38;;;;;;;2.33;1.57;;;5.90;99.90;;;;;;4990372;28;20591;-78
2021/04/14 06:50:16;;;;;;;3.33;1.33;;;5.40;99.90;;;;;;4988389;28;20717;-79
2021/04/14 06:52:58;;;;;;;3.90;1.90;;;5.10;99.90;;;;;;4988162;28;20757;-79
2021/04/14 06:55:32;;;;;;;3.47;2.10;;;4.90;99.90;;;;;;4989034;28;20204;-79
2021/04/14 06:58:10;;;;;;;1.70;1.53;;;4.90;99.90;;;;;;4989126;28;20176;-79
2021/04/14 07:00:40;;;;;;;2.70;1.70;;;4.90;99.90;;;;;;4989570;28;20187;-79
2021/04/14 07:03:51;;;;;;;1.57;1.40;;;4.80;99.90;;;;;;4989943;28;20220;-78
2021/04/14 07:06:20;;;;;;;2.70;1.37;;;4.90;99.90;;;;;;5015375;28;20727;-78
2021/04/14 07:09:07;;;;;;;2.43;2.00;;;5.10;99.90;;;;;;4988784;28;20224;-79
2021/04/14 07:11:34;;;;;;;2.67;2.10;;;5.20;99.90;;;;;;4988848;28;20219;-79
2021/04/14 07:14:00;;;;;;;7.13;1.87;;;5.30;99.90;;;;;;4989928;28;20236;-79
2021/04/14 07:16:54;;;;;;;1.90;1.53;;;5.30;99.90;;;;;;5004987;28;20546;-79
2021/04/14 07:19:50;;;;;;;1.63;1.50;;;5.20;99.90;;;;;;4990436;28;20263;-79
2021/04/14 07:22:32;;;;;;;4.10;1.50;;;5.30;99.90;;;;;;4988628;28;20674;-79
2021/04/14 07:25:08;;;;;;;2.03;1.37;;;5.50;99.90;;;;;;5005096;28;20191;-79
2021/04/14 07:27:53;;;;;;;2.13;1.50;;;5.70;99.90;;;;;;5005232;28;20211;-79
2021/04/14 07:30:21;;;;;;;2.73;1.47;;;6.00;99.90;;;;;;4988463;28;20580;-79
2021/04/14 07:33:13;;;;;;;2.43;1.20;;;6.10;99.90;;;;;;4988983;28;20235;-79
2021/04/14 07:35:49;;;;;;;2.53;1.43;;;6.10;99.90;;;;;;4990081;28;20318;-79
2021/04/14 07:38:27;;;;;;;4.80;1.63;;;6.60;99.90;;;;;;4987624;28;20223;-79
2021/04/14 07:41:07;;;;;;;1.07;1.00;;;6.90;99.90;;;;;;4989091;28;20204;-79
2021/04/14 07:44:07;;;;;;;1.30;1.20;;;7.20;99.90;;;;;;4989232;28;20184;-78
2021/04/14 07:46:36;;;;;;;3.30;1.87;;;7.60;99.90;;;;;;4988989;28;20741;-80
2021/04/14 07:49:05;;;;;;;3.13;1.30;;;8.00;99.90;;;;;;4989357;28;20216;-79
2021/04/14 07:51:31;;;;;;;3.67;1.60;;;8.10;99.90;;;;;;4989574;28;20204;-79
2021/04/14 07:54:01;;;;;;;2.67;1.47;;;7.80;99.90;;;;;;4989955;28;20764;-79
2021/04/14 07:56:38;;;;;;;1.03;0.93;;;7.70;99.90;;;;;;4989453;28;20567;-79
2021/04/14 07:59:04;;;;;;;2.77;2.00;;;7.50;99.90;;;;;;4987874;28;20208;-79
2021/04/14 08:01:30;;;;;;;2.13;1.20;;;7.50;99.90;;;;;;4989499;28;20857;-79
2021/04/14 08:04:20;;;;;;;1.63;1.13;;;7.20;99.90;;;;;;4987961;28;20571;-80
2021/04/14 08:06:46;;;;;;;1.40;0.90;;;7.30;99.90;;;;;;4987788;28;20239;-79
2021/04/14 08:09:15;;;;;;;7.17;2.30;;;7.30;99.90;;;;;;4987895;28;20215;-80
2021/04/14 08:11:42;;;;;;;2.90;1.20;;;7.40;99.90;;;;;;4989781;28;20527;-79
2021/04/14 08:14:20;;;;;;;4.03;1.73;;;7.50;99.90;;;;;;4988751;28;20588;-80
2021/04/14 08:16:49;;;;;;;2.37;1.40;;;7.50;99.90;;;;;;4987133;28;20736;-79
2021/04/14 08:19:18;;;;;;;2.00;1.10;;;7.40;99.90;;;;;;4986653;28;20217;-80
2021/04/14 08:22:03;;;;;;;1.13;1.00;;;7.70;99.90;;;;;;4986577;28;20267;-83
2021/04/14 08:24:40;;;;;;;1.10;1.00;;;7.80;99.90;;;;;;4989137;28;20248;-79
2021/04/14 08:27:17;;;;;;;1.57;1.40;;;7.10;99.90;;;;;;4989192;28;20188;-79
2021/04/14 08:29:44;;;;;;;0.93;0.87;;;6.80;99.90;;;;;;4987624;28;20596;-78
2021/04/14 08:32:12;;;;;;;1.10;0.83;;;6.80;99.90;;;;;;4987378;28;20279;-78
2021/04/14 08:34:52;;;;;;;2.47;1.03;;;6.70;99.90;;;;;;4986345;28;20188;-78
2021/04/14 08:37:23;;;;;;;2.67;1.00;;;7.00;99.90;;;;;;4986612;28;20654;-79
2021/04/14 08:39:57;;;;;;;1.50;1.40;;;7.30;99.90;;;;;;4986462;28;20226;-79
2021/04/14 08:42:23;;;;;;;1.30;1.10;;;7.50;99.90;;;;;;4984753;28;20207;-80
2021/04/14 08:44:55;;;;;;;2.13;1.50;;;7.60;99.90;;;;;;4985847;28;20191;-78
2021/04/14 08:47:24;;;;;;;1.37;1.10;;;7.90;99.90;;;;;;4983497;28;20184;-81
2021/04/14 08:50:08;;;;;;;3.50;1.37;;;7.80;99.90;;;;;;4980432;28;20208;-80
2021/04/14 08:52:38;;;;;;;0.87;0.73;;;7.80;99.90;;;;;;5000213;28;20183;-79
2021/04/14 08:55:04;;;;;;;0.73;0.60;;;7.50;99.90;;;;;;4999515;28;20254;-79
2021/04/14 08:57:30;;;;;;;1.63;0.73;;;7.40;99.90;;;;;;4984099;28;20191;-79
2021/04/14 08:59:56;;;;;;;0.93;0.80;;;7.50;99.90;;;;;;4983508;28;20204;-79
2021/04/14 09:02:23;;;;;;;1.00;0.90;;;7.60;99.90;;;;;;4984549;28;20625;-79
2021/04/14 09:04:51;;;;;;;1.53;0.77;;;7.70;99.90;;;;;;4982546;28;20667;-79
2021/04/14 09:07:46;;;;;;;0.43;0.43;;;7.80;99.90;;;;;;4982771;28;20188;-79
2021/04/14 09:10:36;;;;;;;1.37;0.80;;;7.50;99.90;;;;;;4995096;28;20278;-79
2021/04/14 09:13:03;;;;;;;1.10;0.90;;;7.40;99.90;;;;;;4983642;28;20196;-79
2021/04/14 09:15:30;;;;;;;1.13;1.00;;;7.20;99.90;;;;;;4984375;28;20223;-79
2021/04/14 09:18:04;;;;;;;0.60;0.60;;;6.90;99.90;;;;;;4984098;28;20529;-79
2021/04/14 09:20:36;;;;;;;1.03;0.80;;;6.60;99.90;;;;;;4984122;28;20176;-79
2021/04/14 09:23:06;;;;;;;1.40;0.80;;;6.50;99.90;;;;;;4982853;28;20203;-79
2021/04/14 09:25:38;;;;;;;2.97;1.03;;;6.60;99.90;;;;;;4973735;28;20184;-79
2021/04/14 09:28:05;;;;;;;1.60;0.53;;;6.80;99.90;;;;;;4982527;28;20184;-79
2021/04/14 09:30:57;;;;;;;1.03;0.97;;;7.00;99.90;;;;;;4981834;28;20184;-79
2021/04/14 09:33:41;;;;;;;1.67;0.70;;;7.00;99.90;;;;;;4984322;28;20219;-78
2021/04/14 09:36:13;;;;;;;1.80;0.60;;;7.30;99.90;;;;;;4983345;28;20211;-79
2021/04/14 09:38:49;;;;;;;1.23;0.80;;;7.70;99.90;;;;;;4983625;28;20666;-79
2021/04/14 09:41:36;;;;;;;1.90;1.10;;;8.00;99.90;;;;;;4983669;28;20208;-79
2021/04/14 09:44:31;;;;;;;3.87;1.40;;;8.20;99.90;;;;;;4984022;28;20180;-79
2021/04/14 09:47:10;;;;;;;3.13;1.10;;;8.20;99.90;;;;;;4983952;28;20270;-78
2021/04/14 09:49:39;;;;;;;2.53;1.00;;;8.00;99.90;;;;;;4983021;28;20216;-79
2021/04/14 09:52:26;;;;;;;0.67;0.67;;;8.10;99.90;;;;;;4985267;28;20267;-79
2021/04/14 09:55:18;;;;;;;0.80;0.60;;;8.00;99.90;;;;;;4982723;28;20180;-78
2021/04/14 09:57:47;;;;;;;0.50;0.50;;;7.60;99.90;;;;;;4988518;28;20211;-78
2021/04/14 10:00:20;;;;;;;0.97;0.50;;;7.30;99.90;;;;;;4982566;28;20201;-79
2021/04/14 10:02:47;;;;;;;1.20;1.10;;;7.40;99.90;;;;;;4983001;28;20192;-79
2021/04/14 10:05:16;;;;;;;0.50;0.50;;;7.60;99.90;;;;;;4983127;28;21043;-79
2021/04/14 10:07:44;;;;;;;0.30;0.30;;;7.70;99.90;;;;;;4982461;28;20188;-80
2021/04/14 10:10:15;;;;;;;0.77;0.50;;;7.90;99.90;;;;;;4984900;28;20208;-78
2021/04/14 10:12:40;;;;;;;0.63;0.60;;;8.10;99.90;;;;;;5000270;28;20724;-78
2021/04/14 10:15:07;;;;;;;0.90;0.60;;;8.50;99.90;;;;;;4984020;28;20184;-77
2021/04/14 10:17:34;;;;;;;0.43;0.43;;;8.70;99.90;;;;;;4985172;28;20264;-78
2021/04/14 10:20:13;;;;;;;1.47;0.57;;;9.00;99.90;;;;;;4984993;28;20208;-78
2021/04/14 10:22:47;;;;;;;0.97;0.60;;;8.90;99.90;;;;;;4983229;28;20183;-80
2021/04/14 10:25:18;;;;;;;1.37;0.97;;;8.60;99.90;;;;;;4984775;28;20169;-79
2021/04/14 10:27:45;;;;;;;0.43;0.30;;;8.70;99.90;;;;;;4983607;28;20692;-78
2021/04/14 10:30:19;;;;;;;1.60;1.13;;;9.20;99.90;;;;;;4984282;28;20207;-77
2021/04/14 10:32:45;;;;;;;0.97;0.87;;;9.50;99.90;;;;;;4985333;28;21040;-78
2021/04/14 10:35:19;;;;;;;0.67;0.50;;;9.60;99.90;;;;;;4984204;28;20283;-78
2021/04/14 10:37:51;;;;;;;1.07;0.70;;;9.80;99.90;;;;;;4983956;28;20179;-78
2021/04/14 10:40:46;;;;;;;0.40;0.33;;;9.70;99.90;;;;;;4982701;28;20262;-78
2021/04/14 10:43:19;;;;;;;0.30;0.30;;;9.80;99.90;;;;;;4982757;28;20221;-79
2021/04/14 10:46:32;;;;;;;0.30;0.30;;;9.80;99.90;;;;;;4981486;28;20192;-80
2021/04/14 10:49:01;;;;;;;2.00;0.40;;;10.20;99.90;;;;;;4989049;28;20239;-81
2021/04/14 10:51:48;;;;;;;4.27;0.73;;;10.30;99.90;;;;;;4978476;28;20188;-81
2021/04/14 10:54:16;;;;;;;4.53;0.70;;;10.50;99.90;;;;;;4979895;28;20363;-80
2021/04/14 10:56:42;;;;;;;1.73;0.80;;;10.00;99.90;;;;;;4978805;28;20286;-77
2021/04/14 10:59:13;;;;;;;1.60;0.97;;;9.90;99.90;;;;;;4980624;28;20330;-79
2021/04/14 11:01:42;;;;;;;1.97;1.17;;;9.80;99.90;;;;;;4980221;28;20299;-79
2021/04/14 11:04:08;;;;;;;0.50;0.50;;;9.70;99.90;;;;;;4979907;28;20197;-79
2021/04/14 11:06:36;;;;;;;5.33;0.90;;;9.70;99.90;;;;;;4977216;28;20711;-79
2021/04/14 11:09:07;;;;;;;0.87;0.40;;;10.00;99.90;;;;;;4979525;28;20208;-79
2021/04/14 11:11:35;;;;;;;0.97;0.40;;;10.30;99.90;;;;;;4995826;28;20570;-79
2021/04/14 11:14:01;;;;;;;0.70;0.63;;;10.50;99.90;;;;;;4982882;28;20282;-79
2021/04/14 11:16:28;;;;;;;0.43;0.30;;;10.60;99.90;;;;;;4982154;28;20211;-81
2021/04/14 11:18:53;;;;;;;1.17;0.63;;;10.40;99.90;;;;;;4982660;28;20209;-79
2021/04/14 11:21:29;;;;;;;0.83;0.57;;;10.40;99.90;;;;;;4998899;28;20195;-79
2021/04/14 11:24:05;;;;;;;1.57;0.37;;;10.30;99.90;;;;;;4982435;28;20288;-79
2021/04/14 11:26:31;;;;;;;0.83;0.60;;;10.40;99.90;;;;;;4983805;28;20214;-80
2021/04/14 11:28:57;;;;;;;0.40;0.40;;;10.60;99.90;;;;;;4982533;28;20674;-79
2021/04/14 11:31:28;;;;;;;1.50;0.60;;;10.80;99.90;;;;;;4982139;28;20204;-80
2021/04/14 11:33:54;;;;;;;0.43;0.43;;;10.80;99.90;;;;;;4981993;28;20236;-81
2021/04/14 11:36:25;;;;;;;0.80;0.70;;;10.90;99.90;;;;;;4981947;28;20220;-78
2021/04/14 11:39:12;;;;;;;0.30;0.30;;;10.80;99.90;;;;;;4982184;28;20207;-79
2021/04/14 11:41:41;;;;;;;0.50;0.50;;;10.80;99.90;;;;;;4980737;28;20572;-79
2021/04/14 11:44:23;;;;;;;0.87;0.40;;;10.90;99.90;;;;;;4980669;28;20207;-79
2021/04/14 11:46:55;;;;;;;0.60;0.60;;;11.00;99.90;;;;;;4979769;28;20185;-79
2021/04/14 11:49:28;;;;;;;1.13;0.60;;;11.00;99.90;;;;;;4982573;28;20286;-81
2021/04/14 11:52:11;;;;;;;1.20;0.63;;;11.00;99.90;;;;;;4982627;28;20196;-81
2021/04/14 11:54:37;;;;;;;1.30;0.60;;;11.00;99.90;;;;;;4982504;28;20180;-80
2021/04/14 11:57:26;;;;;;;1.27;0.50;;;10.90;99.90;;;;;;4981066;28;20208;-82
2021/04/14 12:00:17;;;;;;;0.50;0.50;;;10.90;99.90;;;;;;4982500;28;20197;-79
2021/04/14 12:02:44;;;;;;;0.93;0.57;;;10.90;99.90;;;;;;4981581;28;20438;-79
2021/04/14 12:05:11;;;;;;;0.80;0.70;;;11.00;99.90;;;;;;4982365;28;20184;-81
2021/04/14 12:07:36;;;;;;;1.33;0.50;;;11.10;99.90;;;;;;4980795;28;20661;-80
2021/04/14 12:10:05;;;;;;;4.27;1.00;;;11.10;99.90;;;;;;4980802;28;20215;-79
2021/04/14 12:12:31;;;;;;;1.17;0.90;;;11.10;99.90;;;;;;4982364;28;20552;-80
2021/04/14 12:14:57;;;;;;;2.60;1.37;;;11.50;99.90;;;;;;4980730;28;20196;-79
2021/04/14 12:17:24;;;;;;;1.20;0.60;;;12.00;99.90;;;;;;4980894;28;20277;-79
2021/04/14 12:19:49;;;;;;;0.53;0.53;;;11.80;99.90;;;;;;4982202;28;20685;-81
2021/04/14 12:22:15;;;;;;;0.90;0.60;;;11.50;99.90;;;;;;4981451;28;20194;-79
2021/04/14 12:24:42;;;;;;;0.40;0.40;;;10.60;99.90;;;;;;4980109;28;20257;-79
2021/04/14 12:27:09;;;;;;;1.70;0.53;;;10.20;99.90;;;;;;4979228;28;20690;-79
2021/04/14 12:29:34;;;;;;;0.50;0.43;;;9.90;99.90;;;;;;4981772;28;20212;-80
2021/04/14 12:32:00;;;;;;;2.13;0.53;;;9.60;99.90;;;;;;4995872;28;20196;-80
2021/04/14 12:34:25;;;;;;;2.10;0.93;;;9.60;99.90;;;;;;4981206;28;20407;-79
2021/04/14 12:36:51;;;;;;;1.03;0.60;;;9.70;99.90;;;;;;4981907;28;20295;-79
2021/04/14 12:39:17;;;;;;;0.60;0.60;;;9.60;99.90;;;;;;4982050;28;20204;-80
2021/04/14 12:41:42;;;;;;;0.83;0.67;;;9.50;99.90;;;;;;4980683;28;20330;-80
2021/04/14 12:44:09;;;;;;;0.40;0.40;;;9.50;99.90;;;;;;4979978;28;20543;-80
2021/04/14 12:46:43;;;;;;;0.40;0.40;;;9.30;99.90;;;;;;4981153;28;20184;-79
2021/04/14 12:49:14;;;;;;;1.30;0.50;;;9.00;99.90;;;;;;4982172;28;20605;-78
2021/04/14 12:51:47;;;;;;;0.60;0.40;;;8.60;99.90;;;;;;4980564;28;20633;-79
2021/04/14 12:54:35;;;;;;;1.07;0.50;;;8.40;99.90;;;;;;4980186;28;20184;-79
2021/04/14 12:57:28;;;;;;;0.20;0.20;;;8.20;99.90;;;;;;4979905;28;20227;-79
2021/04/14 12:59:54;;;;;;;0.50;0.50;;;8.20;99.90;;;;;;4979273;28;20214;-78
2021/04/14 13:02:27;;;;;;;0.60;0.60;;;8.00;99.90;;;;;;4980824;28;20184;-79
2021/04/14 13:05:10;;;;;;;0.50;0.50;;;7.90;99.90;;;;;;4981541;28;20628;-79
2021/04/14 13:07:51;;;;;;;1.03;0.50;;;8.10;99.90;;;;;;4994360;28;20187;-79
2021/04/14 13:10:21;;;;;;;0.70;0.70;;;7.80;99.90;;;;;;4981530;28;20208;-79